Time;durP1;ratioP1;P1;durP2;ratioP2;P2;SDS_P1;SDS_P2;PMS_P1;PMS_P2;Temp;Humidity;BMP_temperature;BMP_pressure;BME280_temperature;BME280_humidity;BME280_pressure;Samples;Min_cycle;Max_cycle;Signal;HPM_P1;HPM_P2
2023/03/30 00:01:17;;;;;;;16.30;11.95;;;9.70;99.90;;;;;;5048406;28;20033;-41
2023/03/30 00:03:44;;;;;;;18.85;12.60;;;9.70;99.90;;;;;;5048678;28;20495;-42
2023/03/30 00:06:11;;;;;;;18.42;12.07;;;9.70;99.90;;;;;;5048364;28;20021;-42
2023/03/30 00:08:37;;;;;;;17.25;13.10;;;9.70;99.90;;;;;;5048671;28;20031;-41
2023/03/30 00:11:06;;;;;;;15.00;11.93;;;9.60;99.90;;;;;;5048913;28;20055;-41
2023/03/30 00:13:33;;;;;;;21.77;14.60;;;9.70;99.90;;;;;;5047188;28;20029;-41
2023/03/30 00:15:59;;;;;;;16.98;11.82;;;9.70;99.90;;;;;;5048509;28;20455;-41
2023/03/30 00:18:25;;;;;;;20.55;14.77;;;9.70;99.90;;;;;;5048372;28;20112;-42
2023/03/30 00:20:51;;;;;;;19.65;12.63;;;9.60;99.90;;;;;;5048727;28;20022;-42
2023/03/30 00:23:18;;;;;;;17.63;12.52;;;9.60;99.90;;;;;;5049191;28;20075;-41
2023/03/30 00:25:44;;;;;;;19.48;13.15;;;9.60;99.90;;;;;;5048254;28;20021;-41
2023/03/30 00:28:10;;;;;;;18.65;14.23;;;9.60;99.90;;;;;;5046896;28;20017;-44
2023/03/30 00:30:36;;;;;;;15.73;12.63;;;9.60;99.90;;;;;;5046793;28;20119;-40
2023/03/30 00:33:02;;;;;;;22.08;13.57;;;9.50;99.90;;;;;;5048121;28;20083;-41
2023/03/30 00:35:29;;;;;;;18.70;13.60;;;9.50;99.90;;;;;;5048220;28;20029;-41
2023/03/30 00:38:00;;;;;;;17.42;13.20;;;9.50;99.90;;;;;;5047981;28;20501;-41
2023/03/30 00:40:27;;;;;;;20.98;13.90;;;9.50;99.90;;;;;;5047946;28;20425;-41
2023/03/30 00:42:58;;;;;;;19.77;12.70;;;9.50;99.90;;;;;;5048493;28;20082;-40
2023/03/30 00:45:32;;;;;;;18.77;13.18;;;9.50;99.90;;;;;;5048161;28;20486;-41
2023/03/30 00:48:08;;;;;;;20.30;13.60;;;9.50;99.90;;;;;;5046401;28;20033;-41
2023/03/30 00:50:42;;;;;;;18.95;13.32;;;9.50;99.90;;;;;;5048290;28;20028;-41
2023/03/30 00:53:46;;;;;;;22.10;14.10;;;9.50;99.90;;;;;;5048340;28;20029;-40
2023/03/30 00:56:15;;;;;;;16.92;12.35;;;9.40;99.90;;;;;;5046378;28;20044;-41
2023/03/30 00:58:42;;;;;;;19.13;12.73;;;9.50;99.90;;;;;;5051644;28;20113;-41
2023/03/30 01:01:11;;;;;;;17.48;12.88;;;9.50;99.90;;;;;;5051873;28;20025;-41
2023/03/30 01:03:49;;;;;;;19.08;12.60;;;9.40;99.90;;;;;;5051720;28;20108;-41
2023/03/30 01:06:20;;;;;;;16.65;12.77;;;9.50;99.90;;;;;;5066887;28;20498;-42
2023/03/30 01:08:46;;;;;;;17.45;11.57;;;9.40;99.90;;;;;;5052131;28;20052;-40
2023/03/30 01:11:12;;;;;;;16.83;11.98;;;9.40;99.90;;;;;;5051880;28;20094;-41
2023/03/30 01:13:43;;;;;;;14.45;11.55;;;9.40;99.90;;;;;;5051950;28;20478;-42
2023/03/30 01:16:17;;;;;;;14.27;10.95;;;9.40;99.90;;;;;;5050171;28;20033;-41
2023/03/30 01:19:17;;;;;;;15.80;11.45;;;9.40;99.90;;;;;;5051367;28;20146;-42
2023/03/30 01:22:03;;;;;;;20.42;13.20;;;9.30;99.90;;;;;;5049975;28;20103;-41
2023/03/30 01:24:48;;;;;;;16.55;12.15;;;9.30;99.90;;;;;;5051591;28;20017;-40
2023/03/30 01:27:20;;;;;;;17.83;12.50;;;9.30;99.90;;;;;;5049777;28;20052;-41
2023/03/30 01:30:13;;;;;;;19.02;13.07;;;9.30;99.90;;;;;;5051615;28;20017;-42
2023/03/30 01:33:27;;;;;;;14.95;11.32;;;9.30;99.90;;;;;;5051029;28;20033;-42
2023/03/30 01:36:11;;;;;;;17.00;10.93;;;9.20;99.90;;;;;;5050988;28;20013;-42
2023/03/30 01:39:14;;;;;;;14.57;10.82;;;9.20;99.90;;;;;;5051063;28;20021;-42
2023/03/30 01:41:58;;;;;;;16.35;11.43;;;9.20;99.90;;;;;;5049890;28;20390;-40
2023/03/30 01:44:36;;;;;;;13.80;10.68;;;9.20;99.90;;;;;;5050976;28;20300;-40
2023/03/30 01:47:11;;;;;;;16.73;12.35;;;9.10;99.90;;;;;;5050286;28;20025;-42
2023/03/30 01:49:55;;;;;;;14.90;10.80;;;9.10;99.90;;;;;;5051091;28;20516;-41
2023/03/30 01:52:27;;;;;;;14.10;10.20;;;9.00;99.90;;;;;;5051265;28;20048;-41
2023/03/30 01:55:18;;;;;;;15.38;9.95;;;9.00;99.90;;;;;;5051467;28;20020;-40
2023/03/30 01:57:52;;;;;;;19.15;12.35;;;9.00;99.90;;;;;;5047565;28;20440;-41
2023/03/30 02:00:22;;;;;;;17.92;11.30;;;9.00;99.90;;;;;;5050927;28;20442;-41
2023/03/30 02:02:57;;;;;;;16.25;9.95;;;8.90;99.90;;;;;;5050759;28;20124;-40
2023/03/30 02:05:26;;;;;;;12.70;9.50;;;8.90;99.90;;;;;;5050743;28;20021;-40
2023/03/30 02:07:56;;;;;;;17.85;11.90;;;8.90;99.90;;;;;;5050206;28;20020;-41
2023/03/30 02:10:26;;;;;;;15.35;11.35;;;8.80;99.90;;;;;;5044282;28;20017;-40
2023/03/30 02:12:54;;;;;;;12.90;9.57;;;8.80;99.90;;;;;;5043701;28;20060;-41
2023/03/30 02:15:21;;;;;;;16.25;11.35;;;8.80;99.90;;;;;;5042514;28;20116;-40
2023/03/30 02:17:47;;;;;;;13.15;9.48;;;8.80;99.90;;;;;;5044075;28;20021;-40
2023/03/30 02:20:15;;;;;;;12.57;9.48;;;8.80;99.90;;;;;;5043041;28;20017;-40
2023/03/30 02:22:41;;;;;;;15.25;11.55;;;8.80;99.90;;;;;;5043901;28;20387;-40
2023/03/30 02:25:07;;;;;;;12.60;10.38;;;8.80;99.90;;;;;;5043928;28;20028;-48
2023/03/30 02:27:33;;;;;;;15.93;10.18;;;8.80;99.90;;;;;;5042059;28;20021;-40
2023/03/30 02:29:59;;;;;;;13.98;11.45;;;8.80;99.90;;;;;;5040066;28;20517;-40
2023/03/30 02:32:30;;;;;;;13.13;10.15;;;8.80;99.90;;;;;;5048395;28;20025;-40
2023/03/30 02:35:08;;;;;;;15.65;10.80;;;8.80;99.90;;;;;;5046059;28;20060;-40
2023/03/30 02:37:54;;;;;;;13.23;9.88;;;8.80;99.90;;;;;;5042523;28;20036;-41
2023/03/30 02:40:46;;;;;;;19.42;12.32;;;8.80;99.90;;;;;;5048117;28;20017;-40
2023/03/30 02:43:33;;;;;;;16.65;11.93;;;8.80;99.90;;;;;;5048279;28;20056;-40
2023/03/30 02:46:23;;;;;;;18.40;12.07;;;8.80;99.90;;;;;;5049874;28;20021;-40
2023/03/30 02:49:07;;;;;;;15.23;11.48;;;8.80;99.90;;;;;;5049825;28;20309;-40
2023/03/30 02:51:33;;;;;;;15.60;11.23;;;8.80;99.90;;;;;;5049983;28;20053;-40
2023/03/30 02:54:16;;;;;;;21.52;13.00;;;8.70;99.90;;;;;;5049624;28;20025;-40
2023/03/30 02:56:46;;;;;;;17.38;12.20;;;8.70;99.90;;;;;;5049368;28;20075;-42
2023/03/30 02:59:17;;;;;;;13.07;10.50;;;8.80;99.90;;;;;;5048662;28;20389;-40
2023/03/30 03:01:55;;;;;;;20.45;12.98;;;8.70;99.90;;;;;;5049166;28;20067;-40
2023/03/30 03:04:22;;;;;;;15.23;11.63;;;8.70;99.90;;;;;;5049457;28;20017;-40
2023/03/30 03:06:51;;;;;;;21.00;13.50;;;8.70;99.90;;;;;;5049104;28;20053;-40
2023/03/30 03:09:18;;;;;;;19.42;11.32;;;8.70;99.90;;;;;;5049420;28;20014;-41
2023/03/30 03:11:43;;;;;;;17.80;11.45;;;8.70;99.90;;;;;;5049175;28;20513;-41
2023/03/30 03:14:10;;;;;;;20.27;13.68;;;8.70;99.90;;;;;;5049286;28;20029;-40
2023/03/30 03:16:36;;;;;;;16.08;12.10;;;8.80;99.90;;;;;;5048421;28;20031;-40
2023/03/30 03:19:02;;;;;;;23.08;13.35;;;8.80;99.90;;;;;;5049635;28;20300;-40
2023/03/30 03:21:28;;;;;;;22.25;12.93;;;8.80;99.90;;;;;;5047532;28;20575;-41
2023/03/30 03:23:53;;;;;;;16.30;11.70;;;8.80;99.90;;;;;;5049006;28;20486;-40
2023/03/30 03:26:19;;;;;;;17.98;12.43;;;8.80;99.90;;;;;;5047730;28;20561;-40
2023/03/30 03:28:45;;;;;;;23.10;12.45;;;8.90;99.90;;;;;;5048837;28;20104;-40
2023/03/30 03:31:12;;;;;;;17.83;11.82;;;8.90;99.90;;;;;;5048935;28;20021;-40
2023/03/30 03:33:38;;;;;;;23.13;10.43;;;9.00;99.90;;;;;;5048656;28;20086;-40
2023/03/30 03:36:04;;;;;;;16.33;10.13;;;9.10;99.90;;;;;;5047385;28;20025;-40
2023/03/30 03:38:30;;;;;;;18.02;10.18;;;9.10;99.90;;;;;;5048773;28;20512;-40
2023/03/30 03:40:57;;;;;;;15.90;9.70;;;9.10;99.90;;;;;;5048928;28;20041;-40
2023/03/30 03:43:24;;;;;;;11.43;7.95;;;9.30;99.90;;;;;;5049095;28;20029;-41
2023/03/30 03:45:50;;;;;;;17.50;8.77;;;9.40;99.90;;;;;;5048362;28;20025;-40
2023/03/30 03:48:17;;;;;;;16.58;8.82;;;9.50;99.90;;;;;;5048105;28;20489;-40
2023/03/30 03:50:44;;;;;;;14.13;7.90;;;9.70;99.90;;;;;;5048895;28;20021;-40
2023/03/30 03:53:11;;;;;;;12.88;7.97;;;9.80;99.90;;;;;;5048888;28;20056;-41
2023/03/30 03:55:36;;;;;;;11.05;7.15;;;9.90;99.90;;;;;;5049073;28;20478;-40
2023/03/30 03:58:06;;;;;;;12.10;7.20;;;10.00;99.90;;;;;;5048451;28;20029;-40
2023/03/30 04:00:32;;;;;;;14.52;7.28;;;10.10;99.90;;;;;;5048828;28;20071;-40
2023/03/30 04:02:58;;;;;;;14.48;7.00;;;10.20;99.90;;;;;;5047152;28;20017;-40
2023/03/30 04:05:24;;;;;;;10.43;7.07;;;10.20;99.90;;;;;;5048163;28;20039;-41
2023/03/30 04:07:52;;;;;;;11.13;6.85;;;10.30;99.90;;;;;;5048049;28;20029;-40
2023/03/30 04:10:18;;;;;;;11.98;7.05;;;10.40;99.90;;;;;;5063271;28;20191;-41
2023/03/30 04:12:44;;;;;;;10.75;6.85;;;10.40;99.90;;;;;;5048328;28;20033;-41
2023/03/30 04:15:10;;;;;;;10.50;5.97;;;10.40;99.90;;;;;;5048669;28;20131;-41
2023/03/30 04:17:36;;;;;;;15.45;6.10;;;10.40;99.90;;;;;;5046227;28;20135;-40
2023/03/30 04:20:09;;;;;;;15.00;6.63;;;10.40;99.90;;;;;;5048836;28;20029;-40
2023/03/30 04:22:35;;;;;;;13.30;6.60;;;10.50;99.90;;;;;;5048694;28;20109;-40
2023/03/30 04:25:05;;;;;;;11.70;5.70;;;10.50;99.90;;;;;;5048626;28;20546;-41
2023/03/30 04:27:31;;;;;;;11.70;5.82;;;10.60;99.90;;;;;;5047741;28;20052;-41
2023/03/30 04:29:57;;;;;;;8.63;5.57;;;10.70;99.90;;;;;;5046896;28;20335;-40
2023/03/30 04:32:23;;;;;;;12.93;5.90;;;10.70;99.90;;;;;;5048233;28;20021;-40
2023/03/30 04:34:53;;;;;;;13.05;5.05;;;10.70;99.90;;;;;;5051009;28;20028;-41
2023/03/30 04:37:29;;;;;;;8.63;4.63;;;10.80;99.90;;;;;;5052307;28;20519;-42
2023/03/30 04:39:56;;;;;;;12.35;5.38;;;10.80;99.90;;;;;;5051207;28;20025;-41
2023/03/30 04:42:29;;;;;;;7.63;5.13;;;10.80;99.90;;;;;;5051015;28;20025;-40
2023/03/30 04:44:57;;;;;;;8.25;5.30;;;10.90;99.90;;;;;;5052104;28;20144;-41
2023/03/30 04:47:27;;;;;;;10.43;5.15;;;10.90;99.90;;;;;;5051621;28;20128;-40
2023/03/30 04:49:53;;;;;;;11.38;5.28;;;10.90;99.90;;;;;;5052072;28;20021;-41
2023/03/30 04:52:19;;;;;;;11.25;5.07;;;10.90;99.90;;;;;;5051936;28;20036;-42
2023/03/30 04:54:45;;;;;;;8.40;5.20;;;10.90;99.90;;;;;;5051992;28;20070;-40
2023/03/30 04:57:12;;;;;;;8.45;5.10;;;11.00;99.90;;;;;;5050526;28;20028;-41
2023/03/30 04:59:39;;;;;;;8.43;5.38;;;11.00;99.90;;;;;;5052065;28;20048;-41
2023/03/30 05:02:05;;;;;;;10.40;5.25;;;11.00;99.90;;;;;;5051774;28;20048;-41
2023/03/30 05:04:30;;;;;;;12.38;5.60;;;11.10;99.90;;;;;;5051956;28;20387;-41
2023/03/30 05:06:56;;;;;;;11.40;4.82;;;11.00;99.90;;;;;;5051605;28;20437;-43
2023/03/30 05:09:22;;;;;;;10.65;5.32;;;11.00;99.90;;;;;;5052175;28;20482;-44
2023/03/30 05:11:48;;;;;;;8.13;4.72;;;11.00;99.90;;;;;;5051420;28;20115;-42
2023/03/30 05:14:14;;;;;;;8.82;4.53;;;11.00;99.90;;;;;;5051767;28;20141;-41
2023/03/30 05:16:39;;;;;;;8.85;4.95;;;11.00;99.90;;;;;;5051278;28;20473;-41
2023/03/30 05:19:05;;;;;;;12.02;4.93;;;11.00;99.90;;;;;;5051971;28;20041;-41
2023/03/30 05:21:30;;;;;;;13.88;4.25;;;11.00;99.90;;;;;;5051841;28;20056;-41
2023/03/30 05:23:57;;;;;;;10.52;4.63;;;11.00;99.90;;;;;;5051769;28;20486;-41
2023/03/30 05:26:22;;;;;;;7.80;4.60;;;11.00;99.90;;;;;;5049841;28;20032;-42
2023/03/30 05:28:48;;;;;;;7.72;4.72;;;11.10;99.90;;;;;;5051624;28;20017;-40
2023/03/30 05:31:14;;;;;;;8.88;5.05;;;11.10;99.90;;;;;;5051771;28;20394;-42
2023/03/30 05:33:40;;;;;;;6.47;4.15;;;11.10;99.90;;;;;;5051574;28;20025;-42
2023/03/30 05:36:05;;;;;;;7.75;4.40;;;11.10;99.90;;;;;;5051050;28;20033;-43
2023/03/30 05:38:31;;;;;;;9.27;4.13;;;11.10;99.90;;;;;;5051035;28;20029;-41
2023/03/30 05:40:57;;;;;;;8.50;4.13;;;11.10;99.90;;;;;;5050973;28;20498;-41
2023/03/30 05:43:22;;;;;;;6.95;3.75;;;11.10;99.90;;;;;;5050838;28;20025;-41
2023/03/30 05:45:48;;;;;;;12.52;4.03;;;11.20;99.90;;;;;;5051064;28;20075;-41
2023/03/30 05:48:14;;;;;;;7.25;3.55;;;11.30;99.90;;;;;;5050761;28;20029;-42
2023/03/30 05:50:41;;;;;;;15.40;4.63;;;11.30;99.90;;;;;;5051188;28;20405;-42
2023/03/30 05:53:08;;;;;;;6.75;3.42;;;11.30;99.90;;;;;;5050784;28;20040;-43
2023/03/30 05:55:33;;;;;;;8.63;3.58;;;11.40;99.90;;;;;;5050842;28;20368;-40
2023/03/30 05:57:59;;;;;;;9.60;3.30;;;11.40;99.90;;;;;;5050509;28;20021;-41
2023/03/30 06:00:25;;;;;;;7.80;3.60;;;11.50;99.90;;;;;;5051163;28;20067;-41
2023/03/30 06:02:51;;;;;;;4.03;2.75;;;11.60;99.90;;;;;;5051347;28;20017;-41
2023/03/30 06:05:17;;;;;;;7.03;3.22;;;11.70;99.90;;;;;;5050622;28;20248;-41
2023/03/30 06:07:44;;;;;;;8.45;3.92;;;11.90;99.90;;;;;;5050530;28;20482;-41
2023/03/30 06:10:10;;;;;;;9.35;4.70;;;11.90;99.90;;;;;;5049834;28;20044;-41
2023/03/30 06:12:38;;;;;;;9.40;3.90;;;11.90;99.90;;;;;;5044292;28;20053;-43
2023/03/30 06:15:04;;;;;;;8.77;3.55;;;12.00;99.90;;;;;;5047907;28;20095;-41
2023/03/30 06:17:30;;;;;;;11.85;3.40;;;12.10;99.90;;;;;;5050051;28;20113;-42
2023/03/30 06:19:56;;;;;;;6.72;3.30;;;12.10;99.90;;;;;;5050897;28;20025;-41
2023/03/30 06:22:21;;;;;;;9.82;3.90;;;12.20;99.90;;;;;;5055593;28;20511;-41
2023/03/30 06:24:47;;;;;;;7.32;3.53;;;12.40;99.90;;;;;;5046680;28;20028;-42
2023/03/30 06:27:12;;;;;;;6.97;2.80;;;12.50;99.90;;;;;;5049966;28;20377;-41
2023/03/30 06:29:38;;;;;;;9.80;3.10;;;12.50;99.90;;;;;;5046624;28;20044;-41
2023/03/30 06:32:04;;;;;;;12.32;3.25;;;12.60;99.90;;;;;;5044596;28;20028;-42
2023/03/30 06:34:29;;;;;;;9.68;3.28;;;12.60;99.90;;;;;;5042189;28;20021;-42
2023/03/30 06:36:55;;;;;;;8.10;3.30;;;12.70;99.90;;;;;;5047150;28;20035;-42
2023/03/30 06:39:21;;;;;;;11.43;3.22;;;12.80;99.90;;;;;;5047321;28;20060;-41
2023/03/30 06:41:46;;;;;;;8.25;3.83;;;12.70;99.90;;;;;;5049869;28;20115;-43
2023/03/30 06:44:13;;;;;;;8.90;3.38;;;12.80;99.90;;;;;;5049966;28;20020;-42
2023/03/30 06:46:39;;;;;;;8.38;3.35;;;12.80;99.90;;;;;;5064676;28;20021;-43
2023/03/30 06:49:06;;;;;;;5.70;3.42;;;12.90;99.90;;;;;;5049893;28;20009;-41
2023/03/30 06:51:34;;;;;;;7.30;3.05;;;13.00;99.90;;;;;;5049867;28;20025;-41
2023/03/30 06:54:00;;;;;;;9.25;3.05;;;13.10;99.90;;;;;;5050331;28;20048;-43
2023/03/30 06:56:26;;;;;;;11.13;3.33;;;13.20;99.90;;;;;;5048254;28;20021;-41
2023/03/30 06:58:51;;;;;;;8.00;3.10;;;13.30;99.90;;;;;;5049727;28;20021;-42
2023/03/30 07:01:17;;;;;;;8.35;3.25;;;13.40;99.90;;;;;;5049674;28;20044;-42
2023/03/30 07:03:43;;;;;;;7.85;3.13;;;13.50;99.90;;;;;;5057826;28;20040;-42
2023/03/30 07:06:09;;;;;;;8.00;2.97;;;13.50;99.90;;;;;;5049270;28;20095;-41
2023/03/30 07:08:35;;;;;;;4.75;2.63;;;13.60;99.90;;;;;;5046944;28;20104;-41
2023/03/30 07:11:05;;;;;;;6.15;2.45;;;13.70;99.90;;;;;;5048164;28;20502;-42
2023/03/30 07:13:31;;;;;;;6.60;2.87;;;13.80;99.90;;;;;;5049260;28;20024;-42
2023/03/30 07:15:57;;;;;;;4.65;2.55;;;13.90;99.90;;;;;;5049170;28;20021;-42
2023/03/30 07:18:23;;;;;;;9.20;3.28;;;14.10;99.90;;;;;;5049096;28;20024;-42
2023/03/30 07:20:50;;;;;;;8.38;3.15;;;14.30;99.90;;;;;;5048394;28;20029;-41
2023/03/30 07:23:16;;;;;;;9.48;3.00;;;14.40;99.90;;;;;;5048553;28;20055;-41
2023/03/30 07:25:43;;;;;;;9.15;2.85;;;14.60;99.90;;;;;;5049275;28;20463;-42
2023/03/30 07:28:09;;;;;;;10.05;2.58;;;14.60;99.90;;;;;;5049465;28;20025;-42
2023/03/30 07:30:34;;;;;;;8.27;2.85;;;14.70;99.90;;;;;;5049264;28;20040;-41
2023/03/30 07:33:00;;;;;;;9.13;2.72;;;14.80;99.90;;;;;;5048882;28;20229;-40
2023/03/30 07:35:26;;;;;;;7.50;2.60;;;14.80;99.90;;;;;;5049189;28;20033;-40
2023/03/30 07:37:52;;;;;;;12.00;3.03;;;14.90;99.90;;;;;;5048618;28;20021;-40
2023/03/30 07:40:20;;;;;;;7.93;2.53;;;15.00;99.90;;;;;;5048886;28;20025;-41
2023/03/30 07:42:46;;;;;;;4.70;2.40;;;15.10;99.90;;;;;;5048112;28;20396;-42
2023/03/30 07:45:12;;;;;;;9.40;3.55;;;15.20;99.90;;;;;;5047529;28;20096;-42
2023/03/30 07:47:38;;;;;;;6.63;2.88;;;15.30;99.90;;;;;;5046734;28;20102;-42
2023/03/30 07:50:05;;;;;;;3.55;2.20;;;15.50;99.90;;;;;;5046355;28;20339;-41
2023/03/30 07:52:31;;;;;;;6.72;2.53;;;15.50;99.90;;;;;;5046159;28;20104;-41
2023/03/30 07:54:56;;;;;;;7.20;2.63;;;15.50;99.90;;;;;;5043667;28;20167;-42
2023/03/30 07:57:22;;;;;;;11.13;2.97;;;15.50;99.90;;;;;;5047135;28;20021;-41
2023/03/30 07:59:48;;;;;;;14.32;3.13;;;15.50;99.90;;;;;;5064072;28;20071;-41
2023/03/30 08:02:13;;;;;;;8.60;2.83;;;15.50;99.90;;;;;;5048584;28;20036;-41
2023/03/30 08:04:43;;;;;;;6.53;2.72;;;15.50;99.90;;;;;;5048886;28;20378;-41
2023/03/30 08:07:09;;;;;;;6.28;2.70;;;15.60;99.90;;;;;;5047389;28;20045;-41
2023/03/30 08:09:35;;;;;;;6.90;2.63;;;15.60;99.90;;;;;;5027522;28;20033;-41
2023/03/30 08:12:00;;;;;;;10.20;2.90;;;15.60;99.90;;;;;;5047705;28;20376;-41
2023/03/30 08:14:26;;;;;;;5.00;2.33;;;15.60;99.90;;;;;;5048292;28;20107;-43
2023/03/30 08:16:55;;;;;;;10.80;2.83;;;15.60;99.90;;;;;;5048160;28;20514;-43
2023/03/30 08:19:23;;;;;;;5.28;2.50;;;15.70;99.90;;;;;;5048438;28;20071;-41
2023/03/30 08:21:49;;;;;;;8.25;2.67;;;15.80;99.90;;;;;;5048505;28;20013;-41
2023/03/30 08:24:15;;;;;;;6.75;2.30;;;15.90;99.90;;;;;;5048425;28;20036;-41
2023/03/30 08:26:40;;;;;;;5.78;2.40;;;16.00;99.90;;;;;;5046606;28;20482;-42
2023/03/30 08:29:07;;;;;;;9.10;2.80;;;16.20;99.90;;;;;;5047101;28;20021;-41
2023/03/30 08:31:33;;;;;;;8.40;2.25;;;16.20;99.90;;;;;;5048252;28;20021;-41
2023/03/30 08:33:58;;;;;;;8.25;2.38;;;16.30;99.90;;;;;;5048437;28;20025;-42
2023/03/30 08:36:24;;;;;;;11.10;3.00;;;16.40;99.90;;;;;;5047957;28;20088;-44
2023/03/30 08:38:50;;;;;;;8.50;3.05;;;16.40;99.90;;;;;;5046888;28;20107;-42
2023/03/30 08:41:28;;;;;;;5.55;2.35;;;16.20;99.90;;;;;;5048337;28;20092;-42
2023/03/30 08:43:59;;;;;;;9.50;2.85;;;16.00;99.90;;;;;;5047600;28;20505;-40
2023/03/30 08:46:26;;;;;;;9.07;2.67;;;16.00;99.90;;;;;;5062630;28;20445;-42
2023/03/30 08:48:56;;;;;;;12.25;2.75;;;16.00;99.90;;;;;;5047896;28;20096;-41
2023/03/30 08:51:26;;;;;;;11.52;2.90;;;16.00;99.90;;;;;;5046701;28;20024;-41
2023/03/30 08:54:14;;;;;;;14.17;2.90;;;16.10;99.90;;;;;;5048138;28;20025;-42
2023/03/30 08:57:17;;;;;;;5.55;2.38;;;16.20;99.90;;;;;;5047366;28;20214;-43
2023/03/30 09:00:20;;;;;;;12.25;3.10;;;16.20;99.90;;;;;;5047841;28;20029;-41
2023/03/30 09:02:50;;;;;;;4.43;2.33;;;16.20;99.90;;;;;;5046491;28;20025;-42
2023/03/30 09:05:39;;;;;;;11.15;2.65;;;16.30;99.90;;;;;;5047996;28;20580;-41
2023/03/30 09:08:27;;;;;;;11.20;3.03;;;16.40;99.90;;;;;;5047623;28;20024;-42
2023/03/30 09:10:58;;;;;;;8.60;2.80;;;16.50;99.90;;;;;;5047855;28;20058;-42
2023/03/30 09:13:27;;;;;;;5.70;2.67;;;16.50;99.90;;;;;;5047319;28;20108;-42
2023/03/30 09:16:16;;;;;;;6.22;2.92;;;16.60;99.90;;;;;;5046044;28;20021;-42
2023/03/30 09:18:45;;;;;;;9.13;2.90;;;16.90;99.90;;;;;;5048313;28;20028;-42
2023/03/30 09:21:12;;;;;;;4.72;2.70;;;17.20;99.90;;;;;;5051309;28;20496;-42
2023/03/30 09:23:38;;;;;;;6.88;3.00;;;17.30;99.90;;;;;;5050392;28;20075;-42
2023/03/30 09:26:38;;;;;;;9.27;3.10;;;18.00;99.90;;;;;;5050105;28;20108;-44
2023/03/30 09:29:18;;;;;;;10.95;2.97;;;18.80;98.70;;;;;;5051220;28;20021;-42
2023/03/30 09:31:53;;;;;;;9.38;2.80;;;20.60;95.40;;;;;;5051577;28;20382;-43
2023/03/30 09:34:33;;;;;;;10.43;3.80;;;22.30;92.40;;;;;;5050011;28;20060;-44
2023/03/30 09:37:09;;;;;;;14.45;4.40;;;23.20;88.20;;;;;;5042761;28;20078;-42
2023/03/30 09:39:36;;;;;;;6.10;3.17;;;24.60;80.40;;;;;;5041629;28;20061;-43
2023/03/30 09:42:16;;;;;;;8.73;3.05;;;25.40;74.40;;;;;;5044542;28;20040;-44
2023/03/30 09:44:50;;;;;;;5.72;2.67;;;24.80;75.60;;;;;;5043530;28;20021;-44
2023/03/30 09:47:23;;;;;;;7.15;3.08;;;25.50;71.50;;;;;;5049888;28;20029;-41
2023/03/30 09:49:55;;;;;;;10.20;3.45;;;24.80;72.80;;;;;;5048344;28;20124;-43
2023/03/30 09:52:24;;;;;;;9.88;3.60;;;22.80;74.90;;;;;;5049899;28;20036;-41
2023/03/30 09:54:50;;;;;;;4.57;2.78;;;21.70;78.70;;;;;;5049692;28;20366;-41
2023/03/30 09:57:26;;;;;;;6.75;3.35;;;21.00;80.60;;;;;;5048759;28;20027;-41
2023/03/30 09:59:54;;;;;;;6.10;3.00;;;20.70;82.00;;;;;;5049419;28;20028;-42
2023/03/30 10:02:21;;;;;;;10.27;3.45;;;20.30;84.10;;;;;;5049316;28;20048;-42
2023/03/30 10:04:59;;;;;;;7.55;3.10;;;19.30;87.60;;;;;;5049186;28;20013;-43
2023/03/30 10:07:29;;;;;;;12.18;2.95;;;19.70;87.70;;;;;;5050498;28;20017;-41
2023/03/30 10:09:58;;;;;;;13.55;3.38;;;20.40;85.30;;;;;;5051127;28;20562;-45
2023/03/30 10:12:25;;;;;;;10.90;2.90;;;20.00;86.90;;;;;;5049323;28;20017;-43
2023/03/30 10:14:56;;;;;;;8.25;2.47;;;20.00;86.60;;;;;;5050438;28;20021;-42
2023/03/30 10:17:24;;;;;;;8.55;2.70;;;19.60;87.80;;;;;;5050564;28;20013;-41
2023/03/30 10:20:12;;;;;;;6.03;2.42;;;19.10;89.00;;;;;;5050373;28;20017;-43
2023/03/30 10:22:48;;;;;;;10.07;3.40;;;18.80;89.80;;;;;;5050469;28;20021;-44
2023/03/30 10:25:20;;;;;;;6.47;2.50;;;18.30;90.50;;;;;;5050601;28;20055;-42
2023/03/30 10:27:49;;;;;;;7.57;2.30;;;18.00;91.60;;;;;;5048909;28;20116;-42
2023/03/30 10:30:20;;;;;;;7.82;2.72;;;17.70;91.60;;;;;;5049713;28;20297;-42
2023/03/30 10:32:46;;;;;;;9.93;2.75;;;17.70;91.90;;;;;;5050483;28;20103;-42
2023/03/30 10:35:18;;;;;;;5.80;2.83;;;17.60;92.30;;;;;;5048884;28;20112;-43
2023/03/30 10:37:46;;;;;;;8.55;3.28;;;17.40;93.00;;;;;;5050322;28;20035;-43
2023/03/30 10:40:17;;;;;;;5.05;2.20;;;17.30;93.00;;;;;;5050132;28;20021;-41
2023/03/30 10:42:45;;;;;;;11.05;3.15;;;17.30;93.50;;;;;;5049816;28;20021;-41
2023/03/30 10:45:17;;;;;;;8.55;2.63;;;17.20;93.90;;;;;;5049904;28;20013;-40
2023/03/30 10:48:08;;;;;;;8.32;2.67;;;17.30;93.70;;;;;;5048516;28;20102;-41
2023/03/30 10:50:48;;;;;;;9.27;2.63;;;17.30;93.60;;;;;;5044686;28;20490;-44
2023/03/30 10:53:43;;;;;;;10.35;2.67;;;17.30;93.90;;;;;;5049924;28;20546;-41
2023/03/30 10:56:45;;;;;;;8.20;2.95;;;17.30;94.10;;;;;;5049776;28;20397;-42
2023/03/30 10:59:44;;;;;;;7.60;3.05;;;17.10;95.50;;;;;;5049580;28;20021;-41
2023/03/30 11:02:37;;;;;;;7.63;2.88;;;16.90;99.90;;;;;;5049727;28;20021;-41
2023/03/30 11:05:11;;;;;;;8.07;2.63;;;16.30;99.90;;;;;;5049821;28;20675;-40
2023/03/30 11:07:48;;;;;;;6.00;2.83;;;15.70;99.90;;;;;;5049101;28;20021;-42
2023/03/30 11:10:21;;;;;;;8.77;2.60;;;15.50;99.90;;;;;;5048074;28;20039;-42
2023/03/30 11:13:06;;;;;;;4.53;2.50;;;16.00;99.90;;;;;;5049553;28;20034;-42
2023/03/30 11:15:53;;;;;;;9.70;2.45;;;16.20;99.90;;;;;;5049310;28;20028;-41
2023/03/30 11:18:27;;;;;;;5.68;2.67;;;16.60;99.90;;;;;;5047978;28;20074;-40
2023/03/30 11:21:07;;;;;;;4.43;2.22;;;16.50;99.90;;;;;;5048211;28;20329;-41
2023/03/30 11:23:51;;;;;;;5.88;1.88;;;16.40;99.90;;;;;;5049777;28;20017;-40
2023/03/30 11:26:43;;;;;;;4.07;2.10;;;16.20;99.90;;;;;;5049067;28;20467;-41
2023/03/30 11:29:48;;;;;;;5.53;2.88;;;16.00;99.90;;;;;;5048763;28;20037;-40
2023/03/30 11:32:45;;;;;;;6.68;3.55;;;15.70;99.90;;;;;;5049553;28;20021;-41
2023/03/30 11:35:18;;;;;;;8.35;3.28;;;15.30;99.90;;;;;;5047458;28;20071;-41
2023/03/30 11:38:20;;;;;;;14.38;3.17;;;15.00;99.90;;;;;;5048939;28;20534;-41
2023/03/30 11:40:50;;;;;;;6.75;2.65;;;14.50;99.90;;;;;;5048788;28;20074;-42
2023/03/30 11:43:18;;;;;;;5.18;3.08;;;13.90;99.90;;;;;;5049097;28;20036;-41
2023/03/30 11:46:08;;;;;;;9.65;2.53;;;13.60;99.90;;;;;;5048829;28;20017;-41
2023/03/30 11:48:52;;;;;;;5.70;2.60;;;13.30;99.90;;;;;;5047361;28;20118;-40
2023/03/30 11:51:38;;;;;;;6.80;2.42;;;13.10;99.90;;;;;;5047568;28;20025;-40
2023/03/30 11:54:31;;;;;;;8.23;2.20;;;13.00;99.90;;;;;;5048873;28;20047;-40
2023/03/30 11:57:27;;;;;;;7.97;3.25;;;12.80;99.90;;;;;;5046679;28;20097;-40
2023/03/30 12:00:08;;;;;;;4.82;2.22;;;12.70;99.90;;;;;;5048615;28;20028;-39
2023/03/30 12:02:52;;;;;;;3.90;2.25;;;12.60;99.90;;;;;;5048246;28;20029;-41
2023/03/30 12:05:37;;;;;;;4.43;2.80;;;12.60;99.90;;;;;;5048506;28;20074;-40
2023/03/30 12:08:42;;;;;;;7.75;2.30;;;12.50;99.90;;;;;;5049006;28;20517;-41
2023/03/30 12:11:26;;;;;;;8.32;2.90;;;12.70;99.90;;;;;;5049044;28;20033;-41
2023/03/30 12:13:53;;;;;;;5.55;2.13;;;13.60;99.90;;;;;;5048672;28;20028;-41
2023/03/30 12:16:43;;;;;;;4.03;1.65;;;14.00;99.90;;;;;;5048869;28;20379;-41
2023/03/30 12:19:16;;;;;;;5.72;2.53;;;14.20;99.90;;;;;;5047312;28;20371;-43
2023/03/30 12:22:04;;;;;;;3.65;1.48;;;14.40;99.90;;;;;;5048592;28;20228;-43
2023/03/30 12:24:57;;;;;;;5.28;1.70;;;14.80;99.90;;;;;;5048737;28;20254;-43
2023/03/30 12:27:26;;;;;;;4.20;1.38;;;15.80;99.90;;;;;;5037391;28;20482;-42
2023/03/30 12:29:53;;;;;;;4.60;1.67;;;15.40;99.90;;;;;;5048265;28;20021;-41
2023/03/30 12:32:26;;;;;;;3.55;1.23;;;15.30;99.90;;;;;;5048215;28;20028;-41
2023/03/30 12:34:52;;;;;;;9.75;2.20;;;15.70;99.90;;;;;;5048432;28;20036;-41
2023/03/30 12:37:27;;;;;;;4.90;1.67;;;15.60;99.90;;;;;;5048373;28;20017;-41
2023/03/30 12:40:07;;;;;;;6.50;2.10;;;15.50;99.90;;;;;;5048260;28;20028;-42
2023/03/30 12:42:38;;;;;;;9.55;2.35;;;15.30;99.90;;;;;;5048048;28;20040;-41
2023/03/30 12:45:20;;;;;;;;;;;15.30;99.90;;;;;;5049028;28;20025;-41
2023/03/30 12:48:20;;;;;;;9.13;2.65;;;15.10;99.90;;;;;;5047879;28;19913;-42
2023/03/30 12:51:27;;;;;;;6.68;2.80;;;15.00;99.90;;;;;;5048163;28;20055;-43
2023/03/30 12:54:08;;;;;;;10.75;2.35;;;14.90;99.90;;;;;;5027539;28;20026;-42
2023/03/30 12:56:36;;;;;;;7.80;2.83;;;14.60;99.90;;;;;;5029793;28;20536;-41
2023/03/30 12:59:28;;;;;;;9.10;2.80;;;14.80;99.90;;;;;;5042577;28;20417;-42
2023/03/30 13:02:18;;;;;;;8.32;2.55;;;15.30;99.90;;;;;;5052288;28;20035;-42
2023/03/30 13:04:47;;;;;;;7.47;2.00;;;16.10;99.90;;;;;;5052146;28;20105;-41
2023/03/30 13:07:22;;;;;;;7.75;2.15;;;16.80;99.90;;;;;;5051557;28;20025;-41
2023/03/30 13:10:01;;;;;;;7.80;2.70;;;16.70;99.90;;;;;;5052190;28;20013;-41